Stations météo

réclame
Mon MeteoGroup
Winterbourne No 2, Grande-Bretagne (99062): Température de l'air & dewpoint: 15.10.2019 19:00:00 - 21.10.2019 19:00:00 (BST)Winterbourne No 2, Grande-Bretagne (99062): Température de l'air -20cm & Température de l'air -100cm: 15.10.2019 19:00:00 - 21.10.2019 19:00:00 (BST)Winterbourne No 2, Grande-Bretagne (99062): Quantités de précipitations: 15.10.2019 19:00:00 - 21.10.2019 19:00:00 (BST)
Date & Time tt [°C] td [°C] tt -20cm [°C] tt -100cm [°C] rr [mm]
21.10.2019 19:00:00 - - - - -
21.10.2019 18:00:00 9,8 6,9 - - 0,0
21.10.2019 17:00:00 10,3 7,0 - - 0,0
21.10.2019 16:00:00 10,6 6,8 - - -
21.10.2019 15:00:00 11,5 6,8 - - 0,0
21.10.2019 14:00:00 11,7 6,5 - - 0,0
21.10.2019 13:00:00 11,9 6,6 - - 0,0
21.10.2019 12:00:00 11,1 7,3 - - 0,0
21.10.2019 11:00:00 10,5 7,9 - - 0,0
21.10.2019 10:00:00 9,6 8,0 11,7 13,0 0,0
21.10.2019 09:00:00 9,3 8,2 - - 0,0
21.10.2019 08:00:00 8,9 8,4 - - 0,2
21.10.2019 07:00:00 8,8 8,5 - - 0,4
21.10.2019 06:00:00 8,5 8,1 - - 0,0
21.10.2019 05:00:00 8,4 8,0 - - 0,8
21.10.2019 04:00:00 8,5 8,0 - - 0,2
21.10.2019 03:00:00 8,6 7,8 - - 0,0
21.10.2019 02:00:00 8,6 7,5 - - 0,0
21.10.2019 01:00:00 8,9 7,6 - - 0,0
21.10.2019 00:00:00 9,1 7,9 - - 0,0
20.10.2019 23:00:00 9,1 8,2 - - 0,2
20.10.2019 22:00:00 9,0 8,4 - - 0,0
20.10.2019 21:00:00 8,9 8,4 - - 0,0
20.10.2019 20:00:00 8,8 8,3 - - 0,2
20.10.2019 19:00:00 8,5 8,0 - - 0,8
20.10.2019 18:00:00 8,6 7,8 - - 0,0
20.10.2019 17:00:00 9,3 7,5 - - 0,0
20.10.2019 16:00:00 10,8 6,3 - - 0,0
20.10.2019 15:00:00 10,7 6,3 - - 0,0
20.10.2019 14:00:00 11,2 5,6 - - 0,0
20.10.2019 13:00:00 9,9 6,1 - - 0,0
20.10.2019 12:00:00 9,4 5,7 - - 0,0
20.10.2019 11:00:00 8,7 5,0 - - 0,0
20.10.2019 10:00:00 7,9 5,1 11,7 13,2 0,0
20.10.2019 09:00:00 7,4 5,0 - - 0,0
20.10.2019 08:00:00 7,2 5,2 - - 0,0
20.10.2019 07:00:00 7,0 5,7 - - 0,0
20.10.2019 06:00:00 6,8 5,6 - - 0,0
20.10.2019 05:00:00 7,5 5,9 - - 0,0
20.10.2019 04:00:00 7,6 5,9 - - 0,0
20.10.2019 03:00:00 6,9 5,9 - - 0,0
20.10.2019 02:00:00 6,9 5,9 - - 0,0
20.10.2019 01:00:00 8,3 7,0 - - 0,0
20.10.2019 00:00:00 8,7 7,4 - - 0,0
19.10.2019 23:00:00 8,5 7,8 - - 0,0
19.10.2019 22:00:00 7,6 6,8 - - 0,0
19.10.2019 21:00:00 8,2 7,0 - - 0,0
19.10.2019 20:00:00 9,0 7,4 - - 0,0
19.10.2019 19:00:00 9,8 7,1 - - 0,0
19.10.2019 18:00:00 11,0 7,2 - - 0,0
19.10.2019 17:00:00 11,2 7,6 - - 0,0
19.10.2019 16:00:00 11,1 6,9 - - 0,0
19.10.2019 15:00:00 12,4 6,9 - - 0,0
19.10.2019 14:00:00 13,4 7,3 - - 0,0
19.10.2019 13:00:00 12,8 7,5 - - 0,0
19.10.2019 12:00:00 10,5 7,5 - - 0,0
19.10.2019 11:00:00 11,4 7,6 - - 0,0
19.10.2019 10:00:00 9,2 7,6 11,7 13,4 0,2
19.10.2019 09:00:00 7,8 7,3 - - 0,0
19.10.2019 08:00:00 7,2 6,7 - - 0,0
19.10.2019 07:00:00 7,6 7,2 - - 0,0
19.10.2019 06:00:00 8,0 7,6 - - 0,0
19.10.2019 05:00:00 7,7 7,4 - - 0,0
19.10.2019 04:00:00 7,8 7,3 - - 0,0
19.10.2019 03:00:00 8,1 7,6 - - 0,0
19.10.2019 02:00:00 8,0 7,4 - - 0,0
19.10.2019 01:00:00 8,5 7,8 - - 0,0
19.10.2019 00:00:00 9,1 8,1 - - 0,0
18.10.2019 23:00:00 9,5 8,5 - - 0,0
18.10.2019 22:00:00 9,6 8,2 - - 0,0
18.10.2019 21:00:00 9,6 8,2 - - 0,0
18.10.2019 20:00:00 9,6 8,3 - - 0,2
18.10.2019 19:00:00 10,0 8,4 - - 1,8
18.10.2019 18:00:00 10,2 8,9 - - 0,4
18.10.2019 17:00:00 10,1 8,4 - - 0,2
18.10.2019 16:00:00 9,9 7,6 - - 0,2
18.10.2019 15:00:00 10,5 7,9 - - 0,0
18.10.2019 14:00:00 9,8 7,6 - - 0,0
18.10.2019 13:00:00 10,7 7,0 - - 0,2
18.10.2019 12:00:00 10,2 7,6 - - 0,0
18.10.2019 11:00:00 9,5 7,8 - - 0,0
18.10.2019 10:00:00 8,4 7,5 11,9 13,5 0,0
18.10.2019 09:00:00 7,5 7,1 - - 0,0
18.10.2019 08:00:00 7,3 6,9 - - 0,0
18.10.2019 07:00:00 7,2 6,6 - - 0,0
18.10.2019 06:00:00 7,9 7,2 - - 0,0
18.10.2019 05:00:00 8,7 8,1 - - 0,0
18.10.2019 04:00:00 9,0 8,3 - - 0,4
18.10.2019 03:00:00 9,2 8,8 - - 0,0
18.10.2019 02:00:00 8,8 8,5 - - 0,8
18.10.2019 01:00:00 8,4 7,8 - - 0,0
18.10.2019 00:00:00 8,7 8,0 - - 0,0
17.10.2019 23:00:00 9,0 8,3 - - 0,0
17.10.2019 22:00:00 8,6 7,7 - - 0,0
17.10.2019 21:00:00 9,5 8,3 - - 0,0
17.10.2019 20:00:00 10,1 8,7 - - 0,0
17.10.2019 19:00:00 11,1 9,5 - - 0,6
17.10.2019 18:00:00 11,5 8,6 - - 0,0
17.10.2019 17:00:00 12,6 9,8 - - 0,0
17.10.2019 16:00:00 12,7 8,5 - - 0,0
17.10.2019 15:00:00 13,9 9,0 - - 0,0
17.10.2019 14:00:00 12,9 8,1 - - 0,0
17.10.2019 13:00:00 13,6 8,7 - - 0,0
17.10.2019 12:00:00 12,7 8,3 - - 0,0
17.10.2019 11:00:00 10,9 8,3 - - 0,0
17.10.2019 10:00:00 8,0 7,6 12,0 13,7 0,0
17.10.2019 09:00:00 5,4 5,3 - - 0,2
17.10.2019 08:00:00 4,6 4,2 - - 0,0
17.10.2019 07:00:00 5,6 5,2 - - 0,0
17.10.2019 06:00:00 6,1 5,9 - - 0,0
17.10.2019 05:00:00 5,1 5,1 - - 0,0
17.10.2019 04:00:00 4,0 3,8 - - 0,0
17.10.2019 03:00:00 4,4 4,1 - - 0,0
17.10.2019 02:00:00 5,0 4,8 - - 0,0
17.10.2019 01:00:00 4,7 4,5 - - 0,0
17.10.2019 00:00:00 4,5 4,2 - - 0,0
16.10.2019 23:00:00 4,0 3,3 - - 0,0
16.10.2019 22:00:00 4,8 4,2 - - 0,0
16.10.2019 21:00:00 5,7 4,7 - - 0,0
16.10.2019 20:00:00 7,0 5,6 - - 0,0
16.10.2019 19:00:00 8,2 5,7 - - 0,0
16.10.2019 18:00:00 11,5 4,6 - - 0,0
16.10.2019 17:00:00 13,3 4,9 - - 0,0
16.10.2019 16:00:00 13,8 6,0 - - 0,0
16.10.2019 15:00:00 13,6 7,3 - - 0,0
16.10.2019 14:00:00 13,6 7,3 - - 0,0
16.10.2019 13:00:00 12,6 7,6 - - 0,0
16.10.2019 12:00:00 12,4 8,8 - - 0,0
16.10.2019 11:00:00 11,5 9,8 - - 0,0
16.10.2019 10:00:00 11,7 10,6 12,7 13,7 0,0
16.10.2019 09:00:00 11,8 11,0 - - 0,2
16.10.2019 08:00:00 12,2 12,1 - - 0,0
16.10.2019 07:00:00 11,8 11,6 - - 0,6
16.10.2019 06:00:00 11,3 11,1 - - 0,2
16.10.2019 05:00:00 10,8 10,5 - - 0,2
16.10.2019 04:00:00 10,5 10,1 - - 0,2
16.10.2019 03:00:00 10,0 9,5 - - 0,0
16.10.2019 02:00:00 9,6 9,2 - - 0,0
16.10.2019 01:00:00 8,5 7,9 - - 0,0
16.10.2019 00:00:00 8,4 7,5 - - 0,0
15.10.2019 23:00:00 9,3 8,0 - - 0,0
15.10.2019 22:00:00 10,3 8,7 - - 0,0
15.10.2019 21:00:00 11,9 10,3 - - 0,0
15.10.2019 20:00:00 12,3 10,6 - - 0,0
15.10.2019 19:00:00 11,9 10,8 - - 0,0

tt = Température de l'air
td = dewpoint
tt -20cm = Température de l'air -20cm
tt -100cm = Température de l'air -100cm
rr = Quantités de précipitations

stations d'obs. à proximité